Time;durP1;ratioP1;P1;durP2;ratioP2;P2;SDS_P1;SDS_P2;PMS_P1;PMS_P2;Temp;Humidity;BMP_temperature;BMP_pressure;BME280_temperature;BME280_humidity;BME280_pressure;Samples;Min_cycle;Max_cycle;Signal;HPM_P1;HPM_P2
2023/04/04 00:00:07;;;;;;;5.22;3.38;;;4.10;98.00;;;;;;4973160;28;20042;-72
2023/04/04 00:02:33;;;;;;;6.32;3.38;;;4.00;97.60;;;;;;4972828;28;20447;-72
2023/04/04 00:04:59;;;;;;;11.45;3.58;;;4.00;97.70;;;;;;4972714;28;20023;-72
2023/04/04 00:07:25;;;;;;;6.40;3.20;;;4.00;98.90;;;;;;4973091;28;20042;-72
2023/04/04 00:09:51;;;;;;;4.70;2.88;;;4.00;98.70;;;;;;4972538;28;20031;-72
2023/04/04 00:12:17;;;;;;;6.13;3.10;;;4.00;97.50;;;;;;4973137;28;20031;-72
2023/04/04 00:14:43;;;;;;;8.25;3.50;;;3.90;97.10;;;;;;4972696;28;20035;-72
2023/04/04 00:17:08;;;;;;;5.00;3.22;;;3.80;96.70;;;;;;4973093;28;20066;-72
2023/04/04 00:19:34;;;;;;;4.57;2.85;;;3.80;97.30;;;;;;4972393;28;20463;-72
2023/04/04 00:22:00;;;;;;;8.48;3.97;;;3.80;97.60;;;;;;4970950;28;20027;-72
2023/04/04 00:24:26;;;;;;;12.23;5.50;;;3.80;97.40;;;;;;4972333;28;20110;-73
2023/04/04 00:26:51;;;;;;;6.63;3.05;;;3.80;97.90;;;;;;4972918;28;20034;-72
2023/04/04 00:29:17;;;;;;;8.55;3.50;;;3.80;99.70;;;;;;4970949;28;20030;-72
2023/04/04 00:31:43;;;;;;;6.35;2.90;;;3.80;99.90;;;;;;4958870;28;20035;-72
2023/04/04 00:34:09;;;;;;;6.53;3.88;;;3.80;99.90;;;;;;4967504;28;20027;-73
2023/04/04 00:36:35;;;;;;;7.20;3.70;;;3.60;99.90;;;;;;4964232;28;20023;-73
2023/04/04 00:39:01;;;;;;;4.88;2.85;;;3.50;99.90;;;;;;4971481;28;20042;-73
2023/04/04 00:41:27;;;;;;;4.78;2.83;;;3.40;99.90;;;;;;4972584;28;20023;-73
2023/04/04 00:43:54;;;;;;;5.15;3.10;;;3.40;99.90;;;;;;4971179;28;20053;-73
2023/04/04 00:46:20;;;;;;;6.72;3.50;;;3.40;99.90;;;;;;4955195;28;20050;-73
2023/04/04 00:48:48;;;;;;;6.75;3.63;;;3.30;99.90;;;;;;4975002;28;20113;-73
2023/04/04 00:51:14;;;;;;;9.25;4.00;;;3.30;99.90;;;;;;4975180;28;20029;-73
2023/04/04 00:53:45;;;;;;;6.63;3.17;;;3.30;99.90;;;;;;4976048;28;20026;-74
2023/04/04 00:56:11;;;;;;;5.30;3.20;;;3.20;99.90;;;;;;4974708;28;20035;-73
2023/04/04 00:58:37;;;;;;;6.05;3.22;;;3.20;99.90;;;;;;4975986;28;20439;-74
2023/04/04 01:01:03;;;;;;;9.48;4.60;;;3.20;99.90;;;;;;4974741;28;20098;-73
2023/04/04 01:03:29;;;;;;;8.90;3.75;;;3.10;99.90;;;;;;4969913;28;20491;-72
2023/04/04 01:05:55;;;;;;;7.30;3.53;;;3.00;99.90;;;;;;4967145;28;20019;-71
2023/04/04 01:08:25;;;;;;;8.60;4.07;;;3.00;99.90;;;;;;4971448;28;20118;-72
2023/04/04 01:10:52;;;;;;;9.18;3.83;;;3.00;99.90;;;;;;4957542;28;20023;-72
2023/04/04 01:13:18;;;;;;;6.00;3.75;;;3.00;99.90;;;;;;4950386;28;20081;-71
2023/04/04 01:15:46;;;;;;;8.52;3.92;;;2.90;99.90;;;;;;4958164;28;20023;-72
2023/04/04 01:18:17;;;;;;;5.63;3.40;;;2.70;99.90;;;;;;4957778;28;20031;-73
2023/04/04 01:21:06;;;;;;;6.45;3.83;;;2.70;99.90;;;;;;4975234;28;20550;-71
2023/04/04 01:23:35;;;;;;;7.38;4.47;;;2.70;99.90;;;;;;4974333;28;20479;-73
2023/04/04 01:26:04;;;;;;;7.55;3.95;;;2.60;99.90;;;;;;4974226;28;20029;-73
2023/04/04 01:28:31;;;;;;;7.28;3.85;;;2.60;99.90;;;;;;4957888;28;20089;-73
2023/04/04 01:31:01;;;;;;;6.93;4.00;;;2.60;99.90;;;;;;4973907;28;20042;-72
2023/04/04 01:33:39;;;;;;;7.05;4.00;;;2.50;99.90;;;;;;4974888;28;20030;-73
2023/04/04 01:36:23;;;;;;;8.70;4.57;;;2.50;99.90;;;;;;4957998;28;20479;-71
2023/04/04 01:39:17;;;;;;;7.78;4.10;;;2.50;99.90;;;;;;4975279;28;20467;-72
2023/04/04 01:41:46;;;;;;;7.63;4.72;;;2.40;99.90;;;;;;4961038;28;20494;-72
2023/04/04 01:44:14;;;;;;;7.43;3.72;;;2.40;99.90;;;;;;4957742;28;20094;-71
2023/04/04 01:46:40;;;;;;;9.00;5.03;;;2.40;99.90;;;;;;4980346;28;20058;-73
2023/04/04 01:49:08;;;;;;;9.88;5.10;;;2.30;99.90;;;;;;4973674;28;20023;-71
2023/04/04 01:51:34;;;;;;;6.10;4.55;;;2.30;99.90;;;;;;4974883;28;20054;-72
2023/04/04 01:54:00;;;;;;;7.40;4.50;;;2.20;99.90;;;;;;4957774;28;20043;-70
2023/04/04 01:56:27;;;;;;;7.53;4.45;;;2.20;99.90;;;;;;4973628;28;20578;-72
2023/04/04 01:58:53;;;;;;;7.15;4.13;;;2.10;99.90;;;;;;4974124;28;20105;-72
2023/04/04 02:01:18;;;;;;;8.85;4.65;;;2.10;99.90;;;;;;4973373;28;20031;-72
2023/04/04 02:03:44;;;;;;;7.78;4.53;;;2.10;99.90;;;;;;4974549;28;20030;-72
2023/04/04 02:06:10;;;;;;;8.40;4.65;;;2.10;99.90;;;;;;4957295;28;20038;-73
2023/04/04 02:08:37;;;;;;;8.60;4.70;;;2.00;99.90;;;;;;4974587;28;20030;-73
2023/04/04 02:11:03;;;;;;;9.98;4.80;;;2.00;99.90;;;;;;4957215;28;20078;-73
2023/04/04 02:13:29;;;;;;;9.98;4.97;;;2.00;99.90;;;;;;4973229;28;20047;-72
2023/04/04 02:15:57;;;;;;;7.28;4.22;;;1.90;99.90;;;;;;4973112;28;20033;-73
2023/04/04 02:18:23;;;;;;;7.35;4.32;;;1.90;99.90;;;;;;4957247;28;20031;-73
2023/04/04 02:20:56;;;;;;;8.23;4.85;;;1.90;99.90;;;;;;4972878;28;20025;-74
2023/04/04 02:23:22;;;;;;;10.03;4.90;;;1.90;99.90;;;;;;4973040;28;20503;-73
2023/04/04 02:25:49;;;;;;;7.82;4.75;;;1.90;99.90;;;;;;4974014;28;20265;-73
2023/04/04 02:28:16;;;;;;;10.35;4.82;;;1.80;99.90;;;;;;4974206;28;20033;-73
2023/04/04 02:30:41;;;;;;;10.02;4.70;;;1.80;99.90;;;;;;4956869;28;20106;-73
2023/04/04 02:33:07;;;;;;;9.18;5.60;;;1.80;99.90;;;;;;4974107;28;20190;-71
2023/04/04 02:35:33;;;;;;;12.57;5.25;;;1.70;99.90;;;;;;4972477;28;20031;-72
2023/04/04 02:37:59;;;;;;;11.20;5.10;;;1.70;99.90;;;;;;4956436;28;20403;-73
2023/04/04 02:40:38;;;;;;;11.75;5.55;;;1.70;99.90;;;;;;4956872;28;20335;-73
2023/04/04 02:43:04;;;;;;;12.30;5.97;;;1.70;99.90;;;;;;4969243;28;20404;-74
2023/04/04 02:45:31;;;;;;;10.35;5.38;;;1.70;99.90;;;;;;4953441;29;20475;-73
2023/04/04 02:48:06;;;;;;;11.30;5.80;;;1.80;99.90;;;;;;4953376;29;20035;-73
2023/04/04 02:50:40;;;;;;;10.70;5.60;;;1.70;99.90;;;;;;4954210;29;20110;-72
2023/04/04 02:53:09;;;;;;;11.18;5.45;;;1.80;99.90;;;;;;4946982;28;20490;-71
2023/04/04 02:55:35;;;;;;;9.50;5.45;;;1.80;99.90;;;;;;4972148;28;20059;-72
2023/04/04 02:58:02;;;;;;;7.88;4.88;;;1.80;99.90;;;;;;4951348;29;20043;-71
2023/04/04 03:00:28;;;;;;;10.70;5.53;;;1.80;99.90;;;;;;4949581;29;20039;-72
2023/04/04 03:02:55;;;;;;;9.73;5.00;;;1.80;99.90;;;;;;4955753;28;20033;-73
2023/04/04 03:05:26;;;;;;;9.60;5.28;;;1.90;99.90;;;;;;4943288;29;20044;-73
2023/04/04 03:07:56;;;;;;;12.95;5.47;;;1.90;99.90;;;;;;4948617;29;20027;-73
2023/04/04 03:10:28;;;;;;;10.07;5.38;;;1.80;99.90;;;;;;4949339;29;20070;-73
2023/04/04 03:12:54;;;;;;;10.57;5.97;;;1.80;99.90;;;;;;4950521;29;20050;-72
2023/04/04 03:15:24;;;;;;;9.55;5.45;;;1.70;99.90;;;;;;4948581;29;20073;-72
2023/04/04 03:17:51;;;;;;;14.27;5.32;;;1.70;99.90;;;;;;4965972;28;20150;-72
2023/04/04 03:20:20;;;;;;;9.73;5.60;;;1.70;99.90;;;;;;4949094;29;20031;-73
2023/04/04 03:22:46;;;;;;;9.90;5.38;;;1.80;99.90;;;;;;4950642;29;20031;-73
2023/04/04 03:25:12;;;;;;;8.93;4.88;;;1.80;99.90;;;;;;4948999;29;20031;-73
2023/04/04 03:27:38;;;;;;;9.18;5.40;;;1.80;99.90;;;;;;4952373;28;20038;-73
2023/04/04 03:30:08;;;;;;;9.85;5.13;;;1.80;99.90;;;;;;4948394;29;20507;-73
2023/04/04 03:32:36;;;;;;;10.93;4.22;;;1.80;99.90;;;;;;4954126;29;20031;-72
2023/04/04 03:35:02;;;;;;;10.20;5.18;;;1.80;99.90;;;;;;4953496;29;20457;-71
2023/04/04 03:37:30;;;;;;;8.65;4.80;;;1.80;99.90;;;;;;4952499;28;20136;-71
2023/04/04 03:39:56;;;;;;;10.30;4.90;;;1.70;99.90;;;;;;4953361;29;20039;-74
2023/04/04 03:42:22;;;;;;;9.57;4.07;;;1.80;99.90;;;;;;4952557;28;20035;-71
2023/04/04 03:44:48;;;;;;;9.95;4.82;;;1.80;99.90;;;;;;4952721;28;20043;-73
2023/04/04 03:47:24;;;;;;;8.60;4.47;;;1.70;99.90;;;;;;4943649;28;20027;-73
2023/04/04 03:49:51;;;;;;;9.57;5.15;;;1.70;99.90;;;;;;4946004;28;20030;-73
2023/04/04 03:52:17;;;;;;;11.88;4.90;;;1.70;99.90;;;;;;4955590;28;20141;-73
2023/04/04 03:54:43;;;;;;;12.75;5.15;;;1.60;99.90;;;;;;4971592;28;20138;-73
2023/04/04 03:57:10;;;;;;;10.38;5.63;;;1.60;99.90;;;;;;4971312;28;20462;-72
2023/04/04 03:59:37;;;;;;;13.82;8.23;;;1.60;99.90;;;;;;4955082;28;20089;-72
2023/04/04 04:02:02;;;;;;;13.02;7.28;;;1.60;99.90;;;;;;4971257;28;20023;-72
2023/04/04 04:04:28;;;;;;;15.60;7.93;;;1.50;99.90;;;;;;4961702;28;20673;-73
2023/04/04 04:06:54;;;;;;;11.82;6.80;;;1.40;99.90;;;;;;4973375;28;20019;-74
2023/04/04 04:09:20;;;;;;;12.88;7.65;;;1.30;99.90;;;;;;4954756;28;20486;-74
2023/04/04 04:11:46;;;;;;;14.40;8.15;;;1.30;99.90;;;;;;4970826;28;20033;-74
2023/04/04 04:14:12;;;;;;;12.38;6.20;;;1.30;99.90;;;;;;4969957;28;20035;-74
2023/04/04 04:16:40;;;;;;;15.80;7.95;;;1.20;99.90;;;;;;4971175;28;20090;-74
2023/04/04 04:19:06;;;;;;;18.92;8.32;;;1.20;99.90;;;;;;4955183;28;20034;-73
2023/04/04 04:21:37;;;;;;;12.52;7.78;;;1.20;99.90;;;;;;4971372;28;20038;-74
2023/04/04 04:24:03;;;;;;;14.23;7.90;;;1.10;99.90;;;;;;4972745;28;20030;-75
2023/04/04 04:26:28;;;;;;;12.07;6.20;;;1.10;99.90;;;;;;4972373;28;20042;-74
2023/04/04 04:28:54;;;;;;;11.48;6.35;;;1.10;99.90;;;;;;4956533;28;20368;-72
2023/04/04 04:31:27;;;;;;;11.63;5.80;;;1.10;99.90;;;;;;4964607;28;20031;-73
2023/04/04 04:33:54;;;;;;;12.00;6.80;;;1.10;99.90;;;;;;4958632;28;20059;-75
2023/04/04 04:36:25;;;;;;;12.52;8.05;;;1.00;99.90;;;;;;4975234;28;20109;-74
2023/04/04 04:39:03;;;;;;;14.00;7.45;;;1.10;99.90;;;;;;4974403;28;20118;-75
2023/04/04 04:41:33;;;;;;;13.73;7.07;;;1.00;99.90;;;;;;4975132;28;20031;-74
2023/04/04 04:44:01;;;;;;;11.80;6.45;;;1.00;99.90;;;;;;4958556;28;20061;-73
2023/04/04 04:46:27;;;;;;;10.23;6.32;;;1.00;99.90;;;;;;4976252;28;20470;-75
2023/04/04 04:48:53;;;;;;;16.27;8.27;;;1.00;99.90;;;;;;4974606;28;20547;-75
2023/04/04 04:51:24;;;;;;;12.27;6.63;;;1.00;99.90;;;;;;4974769;28;20117;-72
2023/04/04 04:53:52;;;;;;;8.82;5.43;;;1.00;99.90;;;;;;4974472;28;20038;-73
2023/04/04 04:56:19;;;;;;;12.02;5.93;;;1.00;99.90;;;;;;4972295;28;20027;-75
2023/04/04 04:58:49;;;;;;;12.15;6.40;;;1.00;99.90;;;;;;4968004;28;20037;-74
2023/04/04 05:01:22;;;;;;;12.18;6.30;;;1.00;99.90;;;;;;4951932;28;20023;-75
2023/04/04 05:03:48;;;;;;;11.55;6.43;;;1.00;99.90;;;;;;4968559;28;20031;-75
2023/04/04 05:06:20;;;;;;;13.25;6.03;;;1.00;99.90;;;;;;4974418;28;20077;-75
2023/04/04 05:08:46;;;;;;;13.23;6.97;;;0.90;99.90;;;;;;4974351;28;20027;-74
2023/04/04 05:11:21;;;;;;;16.05;8.45;;;1.00;99.90;;;;;;4971372;28;20026;-74
2023/04/04 05:13:47;;;;;;;14.68;8.38;;;0.90;99.90;;;;;;4974037;28;20050;-75
2023/04/04 05:16:14;;;;;;;13.38;7.47;;;1.00;99.90;;;;;;4974601;28;20027;-75
2023/04/04 05:18:44;;;;;;;17.25;8.00;;;1.00;99.90;;;;;;4973825;28;20031;-75
2023/04/04 05:21:10;;;;;;;13.75;7.72;;;1.00;99.90;;;;;;4973535;28;20019;-72
2023/04/04 05:23:37;;;;;;;12.93;7.35;;;0.90;99.90;;;;;;4953224;28;20086;-74
2023/04/04 05:26:05;;;;;;;12.13;6.82;;;0.90;99.90;;;;;;4974059;28;20441;-75
2023/04/04 05:28:35;;;;;;;12.70;7.80;;;0.90;99.90;;;;;;4972954;28;20127;-75
2023/04/04 05:31:03;;;;;;;11.00;5.80;;;0.90;99.90;;;;;;4970027;28;20028;-75
2023/04/04 05:33:31;;;;;;;17.13;8.25;;;0.90;99.90;;;;;;4952542;28;20578;-74
2023/04/04 05:36:05;;;;;;;10.43;5.75;;;0.80;99.90;;;;;;4956921;28;20085;-74
2023/04/04 05:38:35;;;;;;;11.20;6.50;;;0.90;99.90;;;;;;4973969;28;20081;-73
2023/04/04 05:41:01;;;;;;;16.52;11.20;;;0.90;99.90;;;;;;4969078;28;20023;-75
2023/04/04 05:43:27;;;;;;;17.67;10.48;;;0.90;99.90;;;;;;4942694;29;20063;-75
2023/04/04 05:46:01;;;;;;;10.90;7.00;;;0.90;99.90;;;;;;4959670;28;20035;-73
2023/04/04 05:48:33;;;;;;;11.85;7.03;;;0.80;99.90;;;;;;4948528;29;20058;-75
2023/04/04 05:50:59;;;;;;;14.75;7.85;;;0.90;99.90;;;;;;4953952;29;20098;-75
2023/04/04 05:53:39;;;;;;;13.27;8.20;;;0.90;99.90;;;;;;4941419;28;20035;-75
2023/04/04 05:56:05;;;;;;;15.18;8.98;;;0.90;99.90;;;;;;4954562;29;20043;-75
2023/04/04 05:58:33;;;;;;;13.52;8.20;;;0.80;99.90;;;;;;4938303;29;20071;-74
2023/04/04 06:01:02;;;;;;;15.30;8.40;;;0.90;99.90;;;;;;4937967;29;20062;-72
2023/04/04 06:03:28;;;;;;;12.27;7.03;;;0.90;99.90;;;;;;4954396;28;20106;-75
2023/04/04 06:05:55;;;;;;;14.00;7.00;;;0.90;99.90;;;;;;4953774;28;20128;-73
2023/04/04 06:08:21;;;;;;;13.15;7.28;;;0.90;99.90;;;;;;4970218;28;20027;-75
2023/04/04 06:10:47;;;;;;;12.35;7.55;;;0.90;99.90;;;;;;4953708;29;20043;-76
2023/04/04 06:13:13;;;;;;;12.18;6.90;;;0.90;99.90;;;;;;4955457;29;20015;-74
2023/04/04 06:15:42;;;;;;;11.65;6.80;;;0.90;99.90;;;;;;4953944;29;20035;-70
2023/04/04 06:18:08;;;;;;;12.48;7.80;;;0.90;99.90;;;;;;4938251;29;20046;-75
2023/04/04 06:20:34;;;;;;;13.98;7.72;;;0.90;99.90;;;;;;4969866;28;20059;-77
2023/04/04 06:23:03;;;;;;;22.42;11.52;;;1.00;99.90;;;;;;4953217;28;20027;-75
2023/04/04 06:25:31;;;;;;;22.55;10.57;;;1.00;99.90;;;;;;4953760;28;20039;-76
2023/04/04 06:27:58;;;;;;;15.13;9.35;;;0.90;99.90;;;;;;4969190;28;20137;-74
2023/04/04 06:30:24;;;;;;;15.10;8.18;;;1.00;99.90;;;;;;4953611;29;20042;-76
2023/04/04 06:32:51;;;;;;;14.45;7.93;;;1.00;99.90;;;;;;4937577;29;20110;-75
2023/04/04 06:35:20;;;;;;;14.75;8.07;;;1.00;99.90;;;;;;4954367;29;20046;-75
2023/04/04 06:37:57;;;;;;;15.77;8.13;;;1.00;99.90;;;;;;4953683;29;20031;-74
2023/04/04 06:40:24;;;;;;;13.90;8.25;;;1.00;99.90;;;;;;4953170;29;20521;-76
2023/04/04 06:42:51;;;;;;;15.27;8.23;;;1.10;99.90;;;;;;4969324;28;20422;-76
2023/04/04 06:45:19;;;;;;;16.30;8.95;;;1.00;99.90;;;;;;4937041;29;20027;-73
2023/04/04 06:47:45;;;;;;;13.43;8.15;;;1.00;99.90;;;;;;4953737;29;20110;-76
2023/04/04 06:50:11;;;;;;;16.63;10.02;;;1.00;99.90;;;;;;4954543;29;20020;-77
2023/04/04 06:52:37;;;;;;;26.05;15.52;;;1.10;99.90;;;;;;4956143;28;20030;-76
2023/04/04 06:55:04;;;;;;;17.35;11.10;;;1.00;99.90;;;;;;4952922;29;20035;-73
2023/04/04 06:57:30;;;;;;;12.48;7.95;;;1.00;99.90;;;;;;4967999;28;20046;-76
2023/04/04 06:59:57;;;;;;;19.70;8.45;;;1.00;99.90;;;;;;4954397;29;20065;-74
2023/04/04 07:02:23;;;;;;;15.43;8.90;;;1.00;99.90;;;;;;4936657;29;20027;-78
2023/04/04 07:04:49;;;;;;;13.15;7.80;;;1.00;99.90;;;;;;4954508;29;20561;-77
2023/04/04 07:07:15;;;;;;;15.00;7.90;;;1.10;99.90;;;;;;4954278;29;20495;-72
2023/04/04 07:09:41;;;;;;;13.18;8.45;;;1.00;99.90;;;;;;4954744;29;20113;-72
2023/04/04 07:12:07;;;;;;;16.15;8.25;;;1.00;99.90;;;;;;4953963;29;20023;-77
2023/04/04 07:14:33;;;;;;;12.73;7.68;;;1.10;99.90;;;;;;4954414;29;20110;-76
2023/04/04 07:16:58;;;;;;;12.10;7.93;;;1.10;99.90;;;;;;4953947;29;20019;-76
2023/04/04 07:19:27;;;;;;;16.05;7.75;;;1.10;99.90;;;;;;4954493;28;20031;-77
2023/04/04 07:21:54;;;;;;;14.05;7.88;;;1.10;99.90;;;;;;4953941;29;20055;-77
2023/04/04 07:24:20;;;;;;;12.50;8.57;;;1.10;99.90;;;;;;4954002;29;20031;-71
2023/04/04 07:26:46;;;;;;;13.88;8.48;;;1.10;99.90;;;;;;4954026;29;20027;-78
2023/04/04 07:29:12;;;;;;;15.95;8.48;;;1.10;99.90;;;;;;4954260;29;20041;-77
2023/04/04 07:31:38;;;;;;;16.13;9.13;;;1.00;99.90;;;;;;4954232;29;20027;-75
2023/04/04 07:34:05;;;;;;;15.52;9.13;;;1.10;99.90;;;;;;4953903;28;20094;-76
2023/04/04 07:36:31;;;;;;;15.85;8.48;;;1.10;99.90;;;;;;4953846;29;20028;-77
2023/04/04 07:38:57;;;;;;;17.58;8.05;;;1.10;99.90;;;;;;4953834;29;20034;-76
2023/04/04 07:41:24;;;;;;;14.95;8.90;;;1.00;99.90;;;;;;4954107;29;20021;-77
2023/04/04 07:43:50;;;;;;;15.50;10.25;;;1.10;99.90;;;;;;4970704;28;20085;-78
2023/04/04 07:46:16;;;;;;;14.25;9.00;;;1.20;99.90;;;;;;4971730;28;20062;-75
2023/04/04 07:48:43;;;;;;;16.15;8.43;;;1.10;99.90;;;;;;4972989;28;20031;-76
2023/04/04 07:51:09;;;;;;;13.98;8.48;;;1.10;99.90;;;;;;4973003;28;20102;-76
2023/04/04 07:53:35;;;;;;;13.23;7.75;;;1.10;99.90;;;;;;4955640;28;20146;-77
2023/04/04 07:56:05;;;;;;;14.95;8.80;;;1.20;99.90;;;;;;4972767;28;20037;-75
2023/04/04 07:58:33;;;;;;;15.27;9.07;;;1.10;99.90;;;;;;4975861;28;20035;-74
2023/04/04 08:00:59;;;;;;;17.73;10.15;;;1.10;99.90;;;;;;4976643;28;20027;-77
2023/04/04 08:03:26;;;;;;;16.52;10.15;;;1.00;99.90;;;;;;4977009;28;20061;-76
2023/04/04 08:05:52;;;;;;;16.60;8.77;;;1.20;99.90;;;;;;4976630;28;20023;-77
2023/04/04 08:08:18;;;;;;;16.73;10.73;;;1.10;99.90;;;;;;4975069;28;20058;-77
2023/04/04 08:10:44;;;;;;;16.77;9.05;;;1.20;99.90;;;;;;4977434;28;20371;-78
2023/04/04 08:13:13;;;;;;;16.08;10.10;;;1.20;99.90;;;;;;4976760;28;20035;-76
2023/04/04 08:15:40;;;;;;;16.13;9.32;;;1.20;99.90;;;;;;4977136;28;20126;-76
2023/04/04 08:18:06;;;;;;;16.23;9.63;;;1.20;99.90;;;;;;4975160;28;20119;-74
2023/04/04 08:20:32;;;;;;;16.13;9.35;;;1.20;99.90;;;;;;4976717;28;20375;-76
2023/04/04 08:22:57;;;;;;;16.75;8.93;;;1.20;99.90;;;;;;4976561;28;20026;-76
2023/04/04 08:25:25;;;;;;;17.55;10.50;;;1.20;99.90;;;;;;4976414;28;20031;-77
2023/04/04 08:27:51;;;;;;;16.52;10.00;;;1.20;99.90;;;;;;4976625;28;20053;-77
2023/04/04 08:30:17;;;;;;;17.45;11.60;;;1.20;99.90;;;;;;4976693;28;20224;-75
2023/04/04 08:32:45;;;;;;;16.42;9.07;;;1.20;99.90;;;;;;4976565;28;20467;-73
2023/04/04 08:35:11;;;;;;;17.30;9.55;;;1.20;99.90;;;;;;4976594;28;20042;-72
2023/04/04 08:37:38;;;;;;;18.25;10.55;;;1.30;99.90;;;;;;4976632;28;20037;-76
2023/04/04 08:40:05;;;;;;;17.33;11.18;;;1.20;99.90;;;;;;4976366;28;20053;-77
2023/04/04 08:42:35;;;;;;;15.63;11.13;;;1.30;99.90;;;;;;4976248;28;20058;-78
2023/04/04 08:45:03;;;;;;;19.27;12.77;;;1.30;99.90;;;;;;4958823;28;20031;-76
2023/04/04 08:47:31;;;;;;;20.50;13.93;;;1.30;99.90;;;;;;4976555;28;20098;-79
2023/04/04 08:50:03;;;;;;;18.58;12.00;;;1.40;99.90;;;;;;4976093;28;20057;-78
2023/04/04 08:52:31;;;;;;;21.17;14.45;;;1.40;99.90;;;;;;4976592;28;20046;-78
2023/04/04 08:54:58;;;;;;;19.60;14.18;;;1.40;99.90;;;;;;4957872;28;20402;-74
2023/04/04 08:57:23;;;;;;;18.63;11.30;;;1.40;99.90;;;;;;4975842;28;20023;-79
2023/04/04 08:59:49;;;;;;;16.33;11.25;;;1.40;99.90;;;;;;4975824;28;20368;-73
2023/04/04 09:02:24;;;;;;;18.98;13.23;;;1.40;99.90;;;;;;4942758;28;20113;-79
2023/04/04 09:04:52;;;;;;;20.30;12.20;;;1.40;99.90;;;;;;4963368;28;20453;-79
2023/04/04 09:07:19;;;;;;;25.60;15.57;;;1.50;99.90;;;;;;4975570;28;20023;-79
2023/04/04 09:09:46;;;;;;;21.83;14.05;;;1.50;99.90;;;;;;4975259;28;20105;-78
2023/04/04 09:12:15;;;;;;;21.27;14.18;;;1.50;99.90;;;;;;4975224;28;20031;-77
2023/04/04 09:14:42;;;;;;;20.77;12.68;;;1.70;99.90;;;;;;4975601;28;20061;-79
2023/04/04 09:17:09;;;;;;;26.60;15.73;;;1.70;99.90;;;;;;4975788;28;20919;-75
2023/04/04 09:19:38;;;;;;;30.25;17.90;;;1.70;99.90;;;;;;4975438;28;20391;-79
2023/04/04 09:22:08;;;;;;;22.95;14.02;;;1.70;99.90;;;;;;4975692;28;20454;-79
2023/04/04 09:24:42;;;;;;;24.02;14.35;;;1.70;99.90;;;;;;4975080;28;20045;-78
2023/04/04 09:27:09;;;;;;;17.35;10.98;;;1.80;99.90;;;;;;4975607;28;20097;-79
2023/04/04 09:29:40;;;;;;;21.08;12.75;;;1.80;99.90;;;;;;4975885;28;20066;-78
2023/04/04 09:32:16;;;;;;;23.67;16.00;;;1.80;99.90;;;;;;4975821;28;20023;-72
2023/04/04 09:34:44;;;;;;;20.83;13.80;;;1.90;99.90;;;;;;4975900;28;20050;-79
2023/04/04 09:37:13;;;;;;;22.48;13.43;;;2.00;99.90;;;;;;4975608;28;20021;-78
2023/04/04 09:39:39;;;;;;;24.33;13.70;;;2.00;99.90;;;;;;4975570;28;20034;-79
2023/04/04 09:42:06;;;;;;;16.70;10.52;;;2.10;99.90;;;;;;4975791;28;20039;-76
2023/04/04 09:44:33;;;;;;;19.20;12.70;;;2.00;99.90;;;;;;4975812;28;20035;-78
2023/04/04 09:47:27;;;;;;;20.23;12.40;;;2.20;99.90;;;;;;4975661;28;20019;-80
2023/04/04 09:49:58;;;;;;;21.33;13.45;;;2.30;99.90;;;;;;4975269;28;20026;-79
2023/04/04 09:52:23;;;;;;;19.23;12.43;;;2.10;99.90;;;;;;4975113;28;20029;-80
2023/04/04 09:55:00;;;;;;;18.15;12.00;;;2.20;99.90;;;;;;4975535;28;20106;-78
2023/04/04 09:57:30;;;;;;;18.52;11.45;;;2.30;99.90;;;;;;4975195;28;20041;-79
2023/04/04 10:00:03;;;;;;;18.00;11.13;;;2.20;99.90;;;;;;4976917;28;20030;-75
2023/04/04 10:02:37;;;;;;;19.25;11.95;;;2.40;99.90;;;;;;4975799;28;20035;-77
2023/04/04 10:05:04;;;;;;;15.82;10.55;;;2.40;99.90;;;;;;4976238;28;20471;-78
2023/04/04 10:07:33;;;;;;;17.02;10.95;;;2.40;99.90;;;;;;4976743;28;20023;-76
2023/04/04 10:10:03;;;;;;;17.67;11.88;;;2.20;99.90;;;;;;4976787;28;20038;-78
2023/04/04 10:12:30;;;;;;;21.15;12.68;;;2.30;99.90;;;;;;4977864;28;20046;-79
2023/04/04 10:14:56;;;;;;;18.42;11.15;;;2.40;99.90;;;;;;4976335;28;20038;-79
2023/04/04 10:17:24;;;;;;;17.45;11.07;;;2.30;99.90;;;;;;4976884;28;20023;-77
2023/04/04 10:19:52;;;;;;;17.30;11.45;;;2.20;99.90;;;;;;4977904;28;20027;-75
2023/04/04 10:22:21;;;;;;;16.88;10.43;;;2.30;99.90;;;;;;4978147;28;20438;-78
2023/04/04 10:24:46;;;;;;;15.13;9.38;;;2.40;99.90;;;;;;4980550;28;20023;-78
2023/04/04 10:27:12;;;;;;;16.15;10.95;;;2.30;99.90;;;;;;4985993;28;20041;-78
2023/04/04 10:29:38;;;;;;;14.98;9.38;;;2.30;99.90;;;;;;4985871;28;20086;-78
2023/04/04 10:32:08;;;;;;;17.27;10.75;;;2.30;99.90;;;;;;4986743;28;20038;-76
2023/04/04 10:34:52;;;;;;;18.38;9.65;;;2.40;99.90;;;;;;4982036;28;20070;-79
2023/04/04 10:37:27;;;;;;;13.32;7.70;;;2.30;99.90;;;;;;4977511;28;20441;-77
2023/04/04 10:40:12;;;;;;;16.58;10.20;;;2.30;99.90;;;;;;4977931;28;20027;-78
2023/04/04 10:42:43;;;;;;;16.45;10.50;;;2.20;99.90;;;;;;4976196;28;20180;-76
2023/04/04 10:45:09;;;;;;;17.35;10.77;;;2.20;99.90;;;;;;4974422;28;20039;-79
2023/04/04 10:47:38;;;;;;;18.77;11.07;;;2.20;99.90;;;;;;4974317;28;20023;-78
2023/04/04 10:50:09;;;;;;;16.60;10.57;;;2.20;99.90;;;;;;4973989;28;20038;-79
2023/04/04 10:52:43;;;;;;;17.58;11.10;;;2.30;99.90;;;;;;4987890;28;20031;-73
2023/04/04 10:55:12;;;;;;;18.52;10.25;;;2.20;99.90;;;;;;4974898;28;20037;-74
2023/04/04 10:57:49;;;;;;;21.73;11.18;;;2.20;99.90;;;;;;4975719;28;20477;-79
2023/04/04 11:00:17;;;;;;;18.20;12.30;;;2.30;99.90;;;;;;4975978;28;20035;-78
2023/04/04 11:02:53;;;;;;;17.95;11.93;;;2.30;99.90;;;;;;4975349;28;20034;-80
2023/04/04 11:05:26;;;;;;;17.52;10.05;;;2.40;99.90;;;;;;4976194;28;20038;-79
2023/04/04 11:08:00;;;;;;;19.20;12.02;;;2.30;99.90;;;;;;4978256;28;20127;-74
2023/04/04 11:10:31;;;;;;;18.50;12.23;;;2.40;99.90;;;;;;4983239;28;20051;-79
2023/04/04 11:13:06;;;;;;;18.20;13.20;;;2.40;99.90;;;;;;4979039;28;20027;-78
2023/04/04 11:16:09;;;;;;;22.17;12.88;;;2.50;99.90;;;;;;4984924;28;20050;-75
2023/04/04 11:18:40;;;;;;;20.48;12.63;;;2.70;99.90;;;;;;4907623;29;20044;-77
2023/04/04 11:21:08;;;;;;;15.55;10.93;;;2.60;99.90;;;;;;4904995;29;20044;-78
2023/04/04 11:23:53;;;;;;;21.65;13.05;;;2.40;99.90;;;;;;4904546;29;20032;-79
2023/04/04 11:26:25;;;;;;;18.45;11.05;;;2.50;99.90;;;;;;4906599;29;20033;-74
2023/04/04 11:28:51;;;;;;;18.80;12.40;;;2.70;99.90;;;;;;4904067;29;20048;-77
2023/04/04 11:31:19;;;;;;;19.60;12.43;;;2.70;99.90;;;;;;4904550;29;20055;-77
2023/04/04 11:33:59;;;;;;;17.92;12.48;;;2.70;99.90;;;;;;4899502;29;20044;-75
2023/04/04 11:36:36;;;;;;;22.95;14.07;;;2.70;99.90;;;;;;4898500;29;20032;-78
2023/04/04 11:39:27;;;;;;;21.67;13.25;;;2.60;99.90;;;;;;4895744;29;20128;-78
2023/04/04 11:42:12;;;;;;;18.58;12.82;;;2.60;99.90;;;;;;4854292;29;1187383;-76
2023/04/04 11:44:53;;;;;;;18.80;12.20;;;2.50;99.90;;;;;;4894802;29;20025;-74
2023/04/04 11:47:23;;;;;;;19.10;13.30;;;2.50;99.90;;;;;;4894840;29;20061;-75
2023/04/04 11:49:50;;;;;;;19.23;13.35;;;2.60;99.90;;;;;;4894741;29;20020;-78
2023/04/04 11:52:17;;;;;;;21.10;14.30;;;2.60;99.90;;;;;;4894921;29;20093;-79
2023/04/04 11:54:45;;;;;;;20.25;14.02;;;2.50;99.90;;;;;;4943275;28;20042;-81
2023/04/04 11:57:13;;;;;;;20.40;14.23;;;2.60;99.90;;;;;;4972810;28;20027;-79
2023/04/04 11:59:50;;;;;;;19.67;12.93;;;2.60;99.90;;;;;;4973290;28;20161;-78
2023/04/04 12:02:20;;;;;;;19.88;13.10;;;2.70;99.90;;;;;;4973105;28;20140;-79
2023/04/04 12:04:46;;;;;;;20.45;13.27;;;2.80;99.90;;;;;;4973544;28;20109;-74
2023/04/04 12:07:14;;;;;;;19.00;12.75;;;2.80;99.90;;;;;;4974476;28;20031;-79
2023/04/04 12:09:41;;;;;;;23.63;14.27;;;2.80;99.90;;;;;;4974318;28;20049;-75
2023/04/04 12:12:11;;;;;;;17.80;11.45;;;2.90;99.90;;;;;;4974061;28;20022;-77
2023/04/04 12:14:38;;;;;;;18.60;12.75;;;2.90;99.90;;;;;;4974114;28;20471;-75
2023/04/04 12:17:04;;;;;;;19.30;12.43;;;2.80;99.90;;;;;;4974337;28;20019;-80
2023/04/04 12:19:34;;;;;;;21.52;14.27;;;2.80;99.90;;;;;;4974044;28;20038;-79
2023/04/04 12:22:00;;;;;;;19.23;12.98;;;2.90;99.90;;;;;;4973957;28;20039;-78
2023/04/04 12:24:26;;;;;;;19.70;11.27;;;2.90;99.90;;;;;;4974415;28;20070;-79
2023/04/04 12:26:57;;;;;;;17.55;11.90;;;2.80;99.90;;;;;;4973808;28;20022;-78
2023/04/04 12:29:26;;;;;;;22.98;14.13;;;2.80;99.90;;;;;;4973888;28;20030;-79
2023/04/04 12:31:54;;;;;;;18.63;11.98;;;2.80;99.90;;;;;;4973177;28;20031;-80
2023/04/04 12:34:28;;;;;;;18.33;11.93;;;2.90;99.90;;;;;;4973947;28;20069;-79
2023/04/04 12:36:56;;;;;;;20.88;12.50;;;2.90;99.90;;;;;;4974281;28;20023;-80
2023/04/04 12:39:25;;;;;;;18.80;11.75;;;3.00;99.90;;;;;;4973556;28;20037;-74
2023/04/04 12:41:58;;;;;;;18.65;11.68;;;2.90;99.90;;;;;;4973630;28;20038;-80
2023/04/04 12:44:30;;;;;;;19.23;12.95;;;3.10;99.90;;;;;;4975408;28;20034;-78
2023/04/04 12:46:59;;;;;;;19.15;12.00;;;2.90;99.90;;;;;;4977147;28;20023;-80
2023/04/04 12:49:29;;;;;;;18.83;12.68;;;2.70;99.90;;;;;;4976902;28;20058;-78
2023/04/04 12:51:56;;;;;;;18.27;12.50;;;2.80;99.90;;;;;;4976866;28;20022;-78